• Join FlightAware (Why Join?)
  • Login
  • US Flag 
07:12PM EDT


 

Airport Tracker/Info


-or-


 

Live Flight TrackerFlight Track Log ✈ OPT925 ✈ 11-May-2013 ✈ KTEB - KHSP

Flight Track Log - Related Links

Times and Time Zones

All times are in EDT time to prevent confusion due to time zone crossing. See the OPT925 flight status page for this flight to view local times or setup timezone preferences in your user account.

Time Position Orientation Groundspeed Altitude Reporting Facility
EDT Latitude Longitude Course Direction KTS MPH feet Rate Location/Type
04:32PM 40.8333 -74.1000 252° West 175 201 1,500  Level New York TRACON
04:33PM 40.8167 -74.1833 255° West 236 272 3,000 2,640 Climbing New York TRACON
04:36PM 40.8172 -74.3686 270° West 234 269 10,700 3,000 Climbing New York Center
04:37PM 40.7936 -74.4606 251° West 243 280 13,300 3,000 Climbing New York Center
04:38PM 40.6704 -74.6184 252° West  Level FlightAware Approximate
04:38PM 40.7253 -74.4458 171° South 228 262 16,700  Level New York Center
04:39PM 40.6444 -74.4333 173° South 256 295 17,000 120 Climbing New York Center
04:40PM 40.6211 -74.5114 249° West 214 246 17,000 780 Level New York Center
04:41PM 40.5886 -74.6161 248° West 251 289 18,700 2,220 Climbing New York Center
04:42PM 40.5478 -74.7175 242° Southwest 291 335 21,500 2,880 Climbing New York Center
04:43PM 40.5189 -74.8278 251° West 317 365 24,500 2,640 Climbing New York Center
04:44PM 40.5233 -74.9400 273° West 311 358 26,900 2,100 Climbing New York Center
04:45PM 40.4925 -75.0447 249° West 311 358 28,800 1,800 Climbing New York Center
04:46PM 40.4403 -75.1614 240° Southwest 327 376 30,600 1,920 Climbing New York Center
04:47PM 40.3886 -75.2644 237° Southwest 337 388 32,700 1,680 Climbing New York Center
04:48PM 40.3386 -75.3672 237° Southwest 342 394 34,000 1,260 Climbing New York Center
04:49PM 40.2825 -75.4725 235° Southwest 347 399 35,200 1,440 Climbing New York Center
04:50PM 40.2303 -75.5750 236° Southwest 347 399 36,900 1,320 Climbing New York Center
04:51PM 40.1803 -75.6800 238° Southwest 347 399 37,900 540 Climbing New York Center
04:52PM 40.1281 -75.7825 236° Southwest 347 399 38,000  Climbing New York Center
04:53PM 40.0758 -75.8817 235° Southwest 341 392 37,900  Descending New York Center
04:54PM 40.0258 -75.9756 235° Southwest 336 387 38,000  Climbing New York Center
04:55PM 39.9778 -76.0697 236° Southwest 326 375 38,000 -60 Level New York Center
04:56PM 39.9275 -76.1686 236° Southwest 326 375 37,900  Descending New York Center
04:57PM 39.8531 -76.3267 239° Southwest 321 369 38,000  Climbing Washington Center
04:59PM 39.7942 -76.4206 231° Southwest 327 376 38,000  Level Washington Center
04:59PM 39.7269 -76.5033 223° Southwest 332 382 38,000  Level Washington Center
05:00PM 39.6469 -76.5939 221° Southwest 338 389 38,000  Level Washington Center
05:01PM 39.5836 -76.6819 227° Southwest 344 396 38,000  Level Washington Center
05:02PM 39.5164 -76.7644 223° Southwest 344 396 38,000  Level Washington Center
05:03PM 39.4508 -76.8494 225° Southwest 339 390 38,000  Level Washington Center
05:04PM 39.3875 -76.9314 225° Southwest 327 376 38,000  Level Washington Center
05:06PM 39.3239 -77.0108 224° Southwest 327 376 38,000 -120 Level Washington Center
05:06PM 39.2583 -77.0900 223° Southwest 327 376 37,800 -840 Descending Washington Center
05:07PM 39.1847 -77.1528 213° Southwest 327 376 36,400 -1,620 Descending Washington Center
05:08PM 39.1108 -77.2153 213° Southwest 327 376 34,600 -1,200 Descending Washington Center
05:10PM 39.0328 -77.2806 213° Southwest 327 376 34,000 -780 Descending Washington Center
05:10PM 38.9692 -77.3644 226° Southwest 332 382 33,100 -1,500 Descending Washington Center
05:12PM 38.9114 -77.4564 231° Southwest 332 382 31,100 -1,920 Descending Washington Center
05:13PM 38.8600 -77.5378 231° Southwest 332 382 29,300 -1,620 Descending Washington Center
05:13PM 38.7875 -77.6397 228° Southwest 345 397 28,000 -720 Descending Washington Center
05:14PM 38.7319 -77.7286 231° Southwest 357 411 28,000 -120 Level Washington Center
05:15PM 38.6675 -77.8278 230° Southwest 357 411 27,800 -1,320 Descending Washington Center
05:16PM 38.6072 -77.9244 231° Southwest 357 411 25,400 -2,520 Descending Washington Center
05:17PM 38.5533 -78.0181 234° Southwest 343 395 22,800 -2,460 Descending Washington Center
05:18PM 38.4972 -78.1119 233° Southwest 337 388 20,500 -1,440 Descending Washington Center
05:20PM 38.4386 -78.2106 233° Southwest 342 394 20,000 -360 Descending Washington Center
05:21PM 38.3844 -78.3094 235° Southwest 347 399 19,800 -1,200 Descending Washington Center
05:21PM 38.3528 -78.4167 249° West 335 386 17,700 -2,100 Descending Washington Center
05:22PM 38.3231 -78.5294 251° West 335 386 15,700 -1,980 Descending Washington Center
05:24PM 38.2931 -78.6419 251° West 335 386 13,800 -2,220 Descending Washington Center
05:24PM 38.2631 -78.7544 251° West 325 374 11,400 -1,980 Descending Washington Center
05:25PM 38.2375 -78.8458 250° West 300 345 10,000 -720 Descending Washington Center
05:26PM 38.2122 -78.9347 250° West 288 331 10,000  Level Washington Center
05:27PM 38.1867 -79.0261 250° West 282 325 10,000  Level Washington Center
05:28PM 38.1636 -79.1069 250° West 282 325 10,000  Level Washington Center
05:29PM 38.1422 -79.1878 251° West 266 306 10,000  Level Washington Center
05:30PM 38.1294 -79.2664 258° West 250 288 10,000  Level Washington Center
05:32PM 38.1103 -79.3525 254° West 231 266 10,100 -360 Climbing Washington Center
05:32PM 38.0972 -79.4283 258° West 231 266 9,300 -1,320 Descending Washington Center
05:33PM 38.0844 -79.5017 258° West 225 259 7,500 -1,620 Descending Washington Center
05:35PM 38.0697 -79.5719 255° West 220 253 6,100 -780 Descending Washington Center
05:35PM 38.0489 -79.6367 248° West 215 247 6,000 -120 Descending Washington Center